Terminal Aerodrome Forecast
Issued by NWS

Home | Current Version | Previous Version | Graphics & Text | Print | Product List | Glossary On
Versions: 1 2 3 4 5 6 7 8 9 10 11 12 13 14 15 16 17 18 19 20 21 22 23 24 25 26 27 28 29 30
000
FTUS43 KLOT 180521
TAFORD
TAF
KORD 180521Z 1806/1912 03010KT P6SM BKN250
     FM181500 06014G21KT P6SM FEW050 BKN150
     FM182100 06015G23KT P6SM SCT040 BKN100 PROB30 1822/1902 -SHRA
      BKN040
     FM190200 06013KT P6SM VCSH BKN025 OVC040=

USA.gov is the U.S. government's official web portal to all federal, state and local government web resources and services.